Time;durP1;ratioP1;P1;durP2;ratioP2;P2;SDS_P1;SDS_P2;PMS_P1;PMS_P2;Temp;Humidity;BMP_temperature;BMP_pressure;BME280_temperature;BME280_humidity;BME280_pressure;Samples;Min_cycle;Max_cycle;Signal;HPM_P1;HPM_P2
2021/04/25 00:01:59;;;;;;;8.82;4.43;;;;;;;-139.48;100.00;61774.03;5019439;28;20186;-67
2021/04/25 00:04:42;;;;;;;7.57;4.60;;;;;;;-139.48;100.00;61774.03;5019026;28;20175;-67
2021/04/25 00:07:26;;;;;;;11.23;5.47;;;;;;;-139.48;100.00;61774.03;5019274;28;20460;-67
2021/04/25 00:10:11;;;;;;;9.63;4.82;;;;;;;-139.48;100.00;61774.03;5022535;23;20108;-69
2021/04/25 00:12:55;;;;;;;10.23;4.60;;;;;;;-139.48;100.00;61774.03;4993900;28;20077;-68
2021/04/25 00:15:39;;;;;;;8.40;5.00;;;;;;;-139.48;100.00;61774.03;5007573;28;20073;-68
2021/04/25 00:18:23;;;;;;;9.18;4.97;;;;;;;-139.48;100.00;61774.03;5007772;28;20052;-68
2021/04/25 00:21:07;;;;;;;;;;;;;;;-139.48;100.00;61774.03;4973838;28;20131;-69
2021/04/25 00:23:51;;;;;;;9.77;5.43;;;;;;;-139.48;100.00;61774.03;4960571;28;19925;-68
2021/04/25 00:26:35;;;;;;;10.65;4.55;;;;;;;-139.48;100.00;61774.03;4987666;28;20049;-68
2021/04/25 00:29:19;;;;;;;9.63;5.78;;;;;;;-139.48;100.00;61774.03;4960075;28;20101;-68
2021/04/25 00:32:03;;;;;;;10.13;5.60;;;;;;;-139.48;100.00;61774.03;4987674;28;20065;-68
2021/04/25 00:34:48;;;;;;;12.05;6.28;;;;;;;-139.48;100.00;61774.03;4987578;28;20058;-68
2021/04/25 00:37:32;;;;;;;10.50;5.45;;;;;;;-139.48;100.00;61774.03;4987580;28;20053;-68
2021/04/25 00:40:17;;;;;;;9.35;5.38;;;;;;;-139.48;100.00;61774.03;4987218;28;20058;-68
2021/04/25 00:43:02;;;;;;;9.57;5.60;;;;;;;-139.48;100.00;61774.03;4973563;28;20054;-68
2021/04/25 00:45:46;;;;;;;9.60;5.40;;;;;;;-139.48;100.00;61774.03;4987363;28;20045;-68
2021/04/25 00:48:30;;;;;;;10.20;5.60;;;;;;;-139.48;100.00;61774.03;4987434;28;20085;-68
2021/04/25 00:51:14;;;;;;;10.45;6.18;;;;;;;-139.48;100.00;61774.03;4987326;28;20057;-68
2021/04/25 00:54:03;;;;;;;12.93;6.18;;;;;;;-139.48;100.00;61774.03;4987251;28;20073;-67
2021/04/25 00:56:47;;;;;;;10.00;6.38;;;;;;;-139.48;100.00;61774.03;4986966;28;20041;-68
2021/04/25 00:59:31;;;;;;;12.88;6.45;;;;;;;-139.48;100.00;61774.03;4987047;28;20108;-69
2021/04/25 01:02:16;;;;;;;11.07;6.03;;;;;;;-139.48;100.00;61774.03;4959602;28;20057;-68
2021/04/25 01:05:00;;;;;;;11.82;5.85;;;;;;;-139.48;100.00;61774.03;4987177;28;20062;-67
2021/04/25 01:07:44;;;;;;;13.00;6.18;;;;;;;-139.48;100.00;61774.03;4987044;28;20113;-68
2021/04/25 01:10:28;;;;;;;12.05;6.25;;;;;;;-139.48;100.00;61774.03;4986829;28;20489;-69
2021/04/25 01:13:13;;;;;;;13.68;5.90;;;;;;;-139.48;100.00;61774.03;4986744;28;20193;-68
2021/04/25 01:15:57;;;;;;;9.60;6.10;;;;;;;-139.48;100.00;61774.03;4986951;28;20161;-68
2021/04/25 01:18:41;;;;;;;10.02;6.25;;;;;;;-139.48;100.00;61774.03;4986746;28;20125;-68
2021/04/25 01:21:28;;;;;;;10.75;5.78;;;;;;;-139.48;100.00;61774.03;4959833;28;20057;-68
2021/04/25 01:24:12;;;;;;;11.63;6.20;;;;;;;-139.48;100.00;61774.03;4986853;28;20058;-68
2021/04/25 01:26:56;;;;;;;12.40;6.45;;;;;;;-139.48;100.00;61774.03;4986632;28;20045;-68
2021/04/25 01:29:40;;;;;;;10.45;6.78;;;;;;;-139.48;100.00;61774.03;4986633;28;20137;-69
2021/04/25 01:32:25;;;;;;;15.07;7.03;;;;;;;-139.48;100.00;61774.03;4986599;28;20053;-68
2021/04/25 01:35:15;;;;;;;14.63;6.57;;;;;;;-139.48;100.00;61774.03;4986705;28;20053;-68
2021/04/25 01:37:59;;;;;;;11.80;6.30;;;;;;;-139.48;100.00;61774.03;4986878;28;20072;-67
2021/04/25 01:40:46;;;;;;;12.52;6.72;;;;;;;-139.48;100.00;61774.03;4986390;28;20138;-68
2021/04/25 01:43:31;;;;;;;10.82;6.32;;;;;;;-139.48;100.00;61774.03;4986592;28;20469;-68
2021/04/25 01:46:15;;;;;;;15.48;6.75;;;;;;;-139.48;100.00;61774.03;4986263;28;20069;-68
2021/04/25 01:48:59;;;;;;;10.38;6.28;;;;;;;-139.48;100.00;61774.03;4972852;28;20053;-68
2021/04/25 01:51:43;;;;;;;15.38;6.70;;;;;;;-139.48;100.00;61774.03;4986337;28;20058;-69
2021/04/25 01:54:27;;;;;;;11.55;6.60;;;;;;;-139.48;100.00;61774.03;4986346;28;20058;-68
2021/04/25 01:57:11;;;;;;;13.63;6.53;;;;;;;-139.48;100.00;61774.03;4986658;28;20054;-68
2021/04/25 01:59:55;;;;;;;14.02;6.85;;;;;;;-139.48;100.00;61774.03;4986494;28;20089;-68
2021/04/25 02:02:41;;;;;;;15.73;7.68;;;;;;;-139.48;100.00;61774.03;4986248;28;20486;-66
2021/04/25 02:05:28;;;;;;;18.15;7.03;;;;;;;-139.48;100.00;61774.03;4986467;28;20174;-68
2021/04/25 02:08:14;;;;;;;12.75;6.53;;;;;;;-139.48;100.00;61774.03;4986474;28;20062;-68
2021/04/25 02:10:58;;;;;;;13.23;6.63;;;;;;;-139.48;100.00;61774.03;4986051;28;20053;-68
2021/04/25 02:13:42;;;;;;;12.23;6.60;;;;;;;-139.48;100.00;61774.03;4986441;28;20137;-68
2021/04/25 02:16:26;;;;;;;12.10;6.10;;;;;;;-139.48;100.00;61774.03;4986447;28;20506;-68
2021/04/25 02:19:10;;;;;;;12.70;6.35;;;;;;;-139.48;100.00;61774.03;4986291;28;20670;-68
2021/04/25 02:21:55;;;;;;;17.40;6.70;;;;;;;-139.48;100.00;61774.03;4986296;28;20415;-68
2021/04/25 02:24:39;;;;;;;13.13;7.10;;;;;;;-139.48;100.00;61774.03;4986302;28;20053;-68
2021/04/25 02:27:22;;;;;;;9.88;6.53;;;;;;;-139.48;100.00;61774.03;4986339;28;20101;-68
2021/04/25 02:30:13;;;;;;;14.63;7.28;;;;;;;-139.48;100.00;61774.03;4985889;28;20053;-68
2021/04/25 02:32:58;;;;;;;14.88;7.43;;;;;;;-139.48;100.00;61774.03;4972543;28;20053;-69
2021/04/25 02:35:42;;;;;;;14.10;6.85;;;;;;;-139.48;100.00;61774.03;4972483;28;20507;-67
2021/04/25 02:38:26;;;;;;;11.50;6.50;;;;;;;-139.48;100.00;61774.03;4986201;28;20194;-69
2021/04/25 02:41:10;;;;;;;;;;;;;;;-139.48;100.00;61774.03;4986359;28;20538;-69
2021/04/25 02:43:54;;;;;;;18.50;7.07;;;;;;;-139.48;100.00;61774.03;4960246;28;19972;-68
2021/04/25 02:46:38;;;;;;;15.25;6.68;;;;;;;-139.48;100.00;61774.03;4989583;28;20499;-68
2021/04/25 02:49:22;;;;;;;15.38;7.05;;;;;;;-139.48;100.00;61774.03;4989585;28;20057;-68
2021/04/25 02:52:06;;;;;;;13.15;7.28;;;;;;;-139.48;100.00;61774.03;4989557;28;20555;-68
2021/04/25 02:54:50;;;;;;;11.68;6.40;;;;;;;-139.48;100.00;61774.03;4989826;28;20476;-67
2021/04/25 02:57:34;;;;;;;13.02;6.85;;;;;;;-139.48;100.00;61774.03;4989352;28;20057;-68
2021/04/25 03:00:23;;;;;;;15.35;7.80;;;;;;;-139.48;100.00;61774.03;4989236;28;20107;-68
2021/04/25 03:03:08;;;;;;;14.75;7.63;;;;;;;-139.48;100.00;61774.03;4975420;28;20515;-68
2021/04/25 03:05:55;;;;;;;12.18;6.97;;;;;;;-139.48;100.00;61774.03;4989421;28;20049;-68
2021/04/25 03:08:39;;;;;;;14.55;6.80;;;;;;;-139.48;100.00;61774.03;4989008;28;20058;-68
2021/04/25 03:11:23;;;;;;;14.55;7.55;;;;;;;-139.48;100.00;61774.03;4989561;28;20109;-69
2021/04/25 03:14:07;;;;;;;12.90;7.68;;;;;;;-139.48;100.00;61774.03;4989253;28;20054;-68
2021/04/25 03:16:51;;;;;;;16.48;7.40;;;;;;;-139.48;100.00;61774.03;4988962;28;20535;-68
2021/04/25 03:19:36;;;;;;;13.45;6.88;;;;;;;-139.48;100.00;61774.03;4988978;28;20412;-68
2021/04/25 03:22:20;;;;;;;15.57;7.07;;;;;;;-139.48;100.00;61774.03;4988985;28;20088;-68
2021/04/25 03:25:07;;;;;;;12.50;6.55;;;;;;;-139.48;100.00;61774.03;4989091;28;20053;-68
2021/04/25 03:27:51;;;;;;;11.50;7.28;;;;;;;-139.48;100.00;61774.03;4961461;28;20057;-68
2021/04/25 03:30:35;;;;;;;14.98;7.82;;;;;;;-139.48;100.00;61774.03;4974873;28;20162;-68
2021/04/25 03:33:19;;;;;;;;;;;;;;;-139.48;100.00;61774.03;4989184;28;20518;-68
2021/04/25 03:36:04;;;;;;;13.68;6.78;;;;;;;-139.48;100.00;61774.03;4961432;28;19928;-68
2021/04/25 03:38:48;;;;;;;13.40;6.63;;;;;;;-139.48;100.00;61774.03;4988640;28;20050;-68
2021/04/25 03:41:33;;;;;;;11.35;6.78;;;;;;;-139.48;100.00;61774.03;4988496;28;20069;-67
2021/04/25 03:44:17;;;;;;;10.40;6.70;;;;;;;-139.48;100.00;61774.03;4988846;28;20085;-68
2021/04/25 03:47:01;;;;;;;11.05;6.20;;;;;;;-139.48;100.00;61774.03;4988619;28;20101;-68
2021/04/25 03:49:45;;;;;;;13.98;7.18;;;;;;;-139.48;100.00;61774.03;4988631;28;20058;-68
2021/04/25 03:52:29;;;;;;;14.18;7.10;;;;;;;-139.48;100.00;61774.03;4988469;28;20069;-68
2021/04/25 03:55:15;;;;;;;16.23;7.70;;;;;;;-139.48;100.00;61774.03;4988741;28;20120;-68
2021/04/25 03:57:59;;;;;;;13.93;7.28;;;;;;;-139.48;100.00;61774.03;4988362;28;20045;-67
2021/04/25 04:00:43;;;;;;;19.73;8.10;;;;;;;-139.48;100.00;61774.03;4988565;28;20546;-69
2021/04/25 04:03:27;;;;;;;14.38;7.60;;;;;;;-139.48;100.00;61774.03;4988482;28;20054;-68
2021/04/25 04:06:11;;;;;;;12.35;7.20;;;;;;;-139.48;100.00;61774.03;4960899;28;20122;-68
2021/04/25 04:08:56;;;;;;;14.15;7.18;;;;;;;-139.48;100.00;61774.03;4988237;28;20077;-68
2021/04/25 04:11:40;;;;;;;13.05;7.53;;;;;;;-139.48;100.00;61774.03;4988132;28;20045;-68
2021/04/25 04:14:24;;;;;;;14.23;7.95;;;;;;;-139.48;100.00;61774.03;4988134;28;20057;-68
2021/04/25 04:17:08;;;;;;;12.77;7.43;;;;;;;-139.48;100.00;61774.03;4988079;28;20538;-68
2021/04/25 04:19:52;;;;;;;12.48;6.47;;;;;;;-139.48;100.00;61774.03;4960595;28;20434;-68
2021/04/25 04:22:37;;;;;;;13.82;7.25;;;;;;;-139.48;100.00;61774.03;4987881;28;20185;-68
2021/04/25 04:25:20;;;;;;;11.32;6.55;;;;;;;-139.48;100.00;61774.03;4960371;28;20053;-68
2021/04/25 04:28:07;;;;;;;12.48;7.10;;;;;;;-139.48;100.00;61774.03;4987932;28;20126;-67
2021/04/25 04:30:51;;;;;;;16.00;7.63;;;;;;;-139.48;100.00;61774.03;4987768;28;20045;-68
2021/04/25 04:33:35;;;;;;;13.88;6.78;;;;;;;-139.48;100.00;61774.03;4960690;28;20046;-69
2021/04/25 04:36:19;;;;;;;13.10;7.93;;;;;;;-139.48;100.00;61774.03;4987508;28;20070;-68
2021/04/25 04:39:03;;;;;;;12.02;6.78;;;;;;;-139.48;100.00;61774.03;4987384;28;20053;-67
2021/04/25 04:41:47;;;;;;;;;;;;;;;-139.48;100.00;61774.03;4988094;28;20089;-69
2021/04/25 04:44:32;;;;;;;13.00;7.97;;;;;;;-139.48;100.00;61774.03;4960003;28;19925;-68
2021/04/25 04:47:16;;;;;;;13.57;8.05;;;;;;;-139.48;100.00;61774.03;4973846;28;20315;-68
2021/04/25 04:50:00;;;;;;;17.17;7.90;;;;;;;-139.48;100.00;61774.03;4987412;28;20051;-68
2021/04/25 04:52:45;;;;;;;21.17;7.68;;;;;;;-139.48;100.00;61774.03;4987393;28;20073;-67
2021/04/25 04:55:30;;;;;;;10.48;7.40;;;;;;;-139.48;100.00;61774.03;4987067;28;20054;-68
2021/04/25 04:58:13;;;;;;;11.68;7.38;;;;;;;-139.48;100.00;61774.03;4987356;28;20105;-68
2021/04/25 05:00:57;;;;;;;12.38;7.18;;;;;;;-139.48;100.00;61774.03;4986959;28;20058;-68
2021/04/25 05:03:41;;;;;;;13.27;7.95;;;;;;;-139.48;100.00;61774.03;4987163;28;20080;-68
2021/04/25 05:06:25;;;;;;;16.33;6.80;;;;;;;-139.48;100.00;61774.03;4986413;28;20094;-68
2021/04/25 05:09:09;;;;;;;14.18;7.13;;;;;;;-139.48;100.00;61774.03;4986950;28;20045;-68
2021/04/25 05:11:56;;;;;;;12.35;6.82;;;;;;;-139.48;100.00;61774.03;4987315;28;20522;-68
2021/04/25 05:14:39;;;;;;;15.85;7.57;;;;;;;-139.48;100.00;61774.03;4973211;28;20453;-69
2021/04/25 05:17:23;;;;;;;13.65;7.22;;;;;;;-139.48;100.00;61774.03;4974297;28;20493;-68
2021/04/25 05:20:08;;;;;;;12.65;7.75;;;;;;;-139.48;100.00;61774.03;4986724;28;20082;-68
2021/04/25 05:22:52;;;;;;;13.23;6.65;;;;;;;-139.48;100.00;61774.03;4986792;28;20046;-68
2021/04/25 05:25:36;;;;;;;13.05;7.93;;;;;;;-139.48;100.00;61774.03;4973943;28;20062;-67
2021/04/25 05:28:20;;;;;;;14.00;6.60;;;;;;;-139.48;100.00;61774.03;4986902;28;20050;-68
2021/04/25 05:31:04;;;;;;;11.25;7.18;;;;;;;-139.48;100.00;61774.03;4973875;28;20102;-68
2021/04/25 05:33:48;;;;;;;13.98;7.45;;;;;;;-139.48;100.00;61774.03;4974168;28;20050;-69
2021/04/25 05:36:31;;;;;;;10.40;6.32;;;;;;;-139.48;100.00;61774.03;4986932;28;20050;-68
2021/04/25 05:39:15;;;;;;;13.40;7.03;;;;;;;-139.48;100.00;61774.03;4974123;28;20404;-67
2021/04/25 05:41:59;;;;;;;21.70;7.97;;;;;;;-139.48;100.00;61774.03;4986838;28;20411;-69
2021/04/25 05:44:44;;;;;;;14.07;6.75;;;;;;;-139.48;100.00;61774.03;4986751;28;20138;-68
2021/04/25 05:47:28;;;;;;;13.38;7.63;;;;;;;-139.48;100.00;61774.03;4973823;28;20097;-68
2021/04/25 05:50:12;;;;;;;16.10;8.18;;;;;;;-139.48;100.00;61774.03;4973679;28;20089;-68
2021/04/25 05:52:56;;;;;;;13.48;7.20;;;;;;;-139.48;100.00;61774.03;4973645;28;20046;-69
2021/04/25 05:55:40;;;;;;;12.00;7.25;;;;;;;-139.48;100.00;61774.03;4972944;28;20537;-68
2021/04/25 05:58:24;;;;;;;10.75;7.22;;;;;;;-139.48;100.00;61774.03;4986379;28;20073;-68
2021/04/25 06:01:08;;;;;;;13.60;7.18;;;;;;;-139.48;100.00;61774.03;4973792;28;20053;-68
2021/04/25 06:03:52;;;;;;;15.02;7.15;;;;;;;-139.48;100.00;61774.03;4986336;28;20057;-67
2021/04/25 06:06:36;;;;;;;16.48;7.38;;;;;;;-139.48;100.00;61774.03;4986358;28;20054;-68
2021/04/25 06:09:20;;;;;;;12.95;7.15;;;;;;;-139.48;100.00;61774.03;4986156;28;20053;-68
2021/04/25 06:12:04;;;;;;;17.45;7.65;;;;;;;-139.48;100.00;61774.03;5026902;22;20181;-69
2021/04/25 06:14:48;;;;;;;;;;;;;;;-139.48;100.00;61774.03;4998311;28;20045;-69
2021/04/25 06:17:34;;;;;;;13.80;6.75;;;;;;;-139.48;100.00;61774.03;4997966;28;19964;-69
2021/04/25 06:20:19;;;;;;;13.85;6.70;;;;;;;-139.48;100.00;61774.03;5015347;28;20571;-68
2021/04/25 06:23:04;;;;;;;13.40;6.80;;;;;;;-139.48;100.00;61774.03;4995876;28;20128;-69
2021/04/25 06:25:47;;;;;;;10.73;6.60;;;;;;;-139.48;100.00;61774.03;4995687;28;20048;-69
2021/04/25 06:28:31;;;;;;;13.68;6.68;;;;;;;-139.48;100.00;61774.03;4995516;28;20514;-69
2021/04/25 06:31:15;;;;;;;14.05;6.65;;;;;;;-139.48;100.00;61774.03;4995580;28;20119;-69
2021/04/25 06:33:59;;;;;;;12.88;6.70;;;;;;;-139.48;100.00;61774.03;4995671;28;20085;-69
2021/04/25 06:36:44;;;;;;;16.45;7.40;;;;;;;-139.48;100.00;61774.03;4995779;28;20057;-69
2021/04/25 06:39:28;;;;;;;26.08;10.88;;;;;;;-139.48;100.00;61774.03;4995444;28;20116;-69
2021/04/25 06:42:12;;;;;;;13.75;7.10;;;;;;;-139.48;100.00;61774.03;4995132;28;20125;-68
2021/04/25 06:44:56;;;;;;;12.85;6.82;;;;;;;-139.48;100.00;61774.03;4995162;28;20077;-69
2021/04/25 06:47:40;;;;;;;21.38;7.55;;;;;;;-139.48;100.00;61774.03;4995322;28;20196;-69
2021/04/25 06:50:24;;;;;;;20.40;7.20;;;;;;;-139.48;100.00;61774.03;4994930;28;20092;-69
2021/04/25 06:53:08;;;;;;;17.02;7.47;;;;;;;-139.48;100.00;61774.03;4995269;28;20137;-69
2021/04/25 06:55:52;;;;;;;17.40;7.15;;;;;;;-139.48;100.00;61774.03;4995223;28;20129;-69
2021/04/25 06:58:36;;;;;;;14.73;6.90;;;;;;;-139.48;100.00;61774.03;4995146;28;20112;-68
2021/04/25 07:01:20;;;;;;;14.80;7.00;;;;;;;-139.48;100.00;61774.03;4995289;28;20057;-69
2021/04/25 07:04:05;;;;;;;13.88;7.30;;;;;;;-139.48;100.00;61774.03;4994988;28;20104;-69
2021/04/25 07:06:49;;;;;;;;;;;;;;;-139.48;100.00;61774.03;4995205;28;20073;-69
2021/04/25 07:09:33;;;;;;;13.48;7.00;;;;;;;-139.48;100.00;61774.03;4981250;28;20024;-68
2021/04/25 07:12:17;;;;;;;11.45;7.40;;;;;;;-139.48;100.00;61774.03;4994507;28;20085;-69
2021/04/25 07:15:01;;;;;;;16.33;7.07;;;;;;;-139.48;100.00;61774.03;4995019;28;20057;-69
2021/04/25 07:17:45;;;;;;;12.32;7.28;;;;;;;-139.48;100.00;61774.03;4995060;28;20069;-69
2021/04/25 07:20:29;;;;;;;16.88;7.75;;;;;;;-139.48;100.00;61774.03;4994554;28;20093;-69
2021/04/25 07:23:17;;;;;;;14.55;7.57;;;;;;;-139.48;100.00;61774.03;4994660;28;20061;-69
2021/04/25 07:26:01;;;;;;;15.10;7.32;;;;;;;-139.48;100.00;61774.03;4995045;28;20053;-69
2021/04/25 07:28:45;;;;;;;15.13;7.75;;;;;;;-139.48;100.00;61774.03;4994472;28;20127;-69
2021/04/25 07:31:29;;;;;;;15.98;7.93;;;;;;;-139.48;100.00;61774.03;4994320;28;20108;-69
2021/04/25 07:34:13;;;;;;;14.35;7.93;;;;;;;-139.48;100.00;61774.03;4994465;28;20077;-69
2021/04/25 07:36:57;;;;;;;15.80;7.88;;;;;;;-139.48;100.00;61774.03;4994454;28;20092;-69
2021/04/25 07:39:41;;;;;;;15.23;8.15;;;;;;;-139.48;100.00;61774.03;4994126;28;20053;-69
2021/04/25 07:42:25;;;;;;;15.80;8.25;;;;;;;-139.48;100.00;61774.03;5007665;28;20073;-69
2021/04/25 07:45:12;;;;;;;17.77;7.88;;;;;;;-139.48;100.00;61774.03;4994156;28;20498;-69
2021/04/25 07:47:56;;;;;;;14.25;8.30;;;;;;;-139.48;100.00;61774.03;4994043;28;20058;-68
2021/04/25 07:50:40;;;;;;;14.88;8.20;;;;;;;-139.48;100.00;61774.03;4993871;28;20049;-69
2021/04/25 07:53:24;;;;;;;19.30;8.25;;;;;;;-139.48;100.00;61774.03;4994097;28;20097;-69
2021/04/25 07:56:08;;;;;;;16.08;8.25;;;;;;;-139.48;100.00;61774.03;4993915;28;20463;-69
2021/04/25 07:58:52;;;;;;;14.93;8.07;;;;;;;-139.48;100.00;61774.03;4980148;28;20423;-69
2021/04/25 08:01:36;;;;;;;13.57;8.38;;;;;;;-139.48;100.00;61774.03;4994050;28;20144;-69
2021/04/25 08:04:20;;;;;;;14.48;8.85;;;;;;;-139.48;100.00;61774.03;4993971;28;20061;-68
2021/04/25 08:07:04;;;;;;;14.73;8.50;;;;;;;-139.48;100.00;61774.03;4993664;28;20073;-69
2021/04/25 08:09:48;;;;;;;17.38;7.85;;;;;;;-139.48;100.00;61774.03;4993930;28;20180;-69
2021/04/25 08:12:32;;;;;;;17.13;8.40;;;;;;;-139.48;100.00;61774.03;4979635;28;20073;-69
2021/04/25 08:15:16;;;;;;;13.70;7.53;;;;;;;-139.48;100.00;61774.03;4993702;28;20483;-68
2021/04/25 08:18:01;;;;;;;12.35;7.85;;;;;;;-139.48;100.00;61774.03;4993522;28;20459;-67
2021/04/25 08:20:45;;;;;;;16.38;8.77;;;;;;;-139.48;100.00;61774.03;4993651;28;20467;-69
2021/04/25 08:23:29;;;;;;;13.07;7.93;;;;;;;-139.48;100.00;61774.03;4993705;28;20101;-69
2021/04/25 08:26:13;;;;;;;15.10;8.40;;;;;;;-139.48;100.00;61774.03;4993279;28;20053;-68
2021/04/25 08:28:57;;;;;;;13.88;7.70;;;;;;;-139.48;100.00;61774.03;5007258;28;20132;-69
2021/04/25 08:31:41;;;;;;;16.85;8.48;;;;;;;-139.48;100.00;61774.03;4993272;28;20148;-69
2021/04/25 08:34:25;;;;;;;;;;;;;;;-139.48;100.00;61774.03;4993891;28;20093;-69
2021/04/25 08:37:09;;;;;;;15.65;8.50;;;;;;;-139.48;100.00;61774.03;4979603;28;19920;-69
2021/04/25 08:39:53;;;;;;;16.15;7.85;;;;;;;-139.48;100.00;61774.03;4993140;28;20455;-69
2021/04/25 08:42:37;;;;;;;15.95;7.70;;;;;;;-139.48;100.00;61774.03;4992525;28;20049;-69
2021/04/25 08:45:21;;;;;;;17.58;8.07;;;;;;;-139.48;100.00;61774.03;4993156;28;20064;-69
2021/04/25 08:48:05;;;;;;;14.13;8.07;;;;;;;-139.48;100.00;61774.03;4992847;28;20092;-68
2021/04/25 08:50:49;;;;;;;13.68;7.57;;;;;;;-139.48;100.00;61774.03;4992774;28;20092;-69
2021/04/25 08:53:33;;;;;;;14.30;8.18;;;;;;;-139.48;100.00;61774.03;4992959;28;20050;-69
2021/04/25 08:56:18;;;;;;;11.82;7.38;;;;;;;-139.48;100.00;61774.03;4992792;28;20093;-69
2021/04/25 08:59:03;;;;;;;11.05;7.22;;;;;;;-139.48;100.00;61774.03;4992929;28;20068;-69
2021/04/25 09:01:48;;;;;;;13.50;7.68;;;;;;;-139.48;100.00;61774.03;4992789;28;20045;-69
2021/04/25 09:04:32;;;;;;;12.95;7.82;;;;;;;-139.48;100.00;61774.03;4992573;28;20427;-69
2021/04/25 09:07:16;;;;;;;14.05;7.18;;;;;;;-139.48;100.00;61774.03;4992412;28;20068;-69
2021/04/25 09:10:06;;;;;;;13.35;7.13;;;;;;;-139.48;100.00;61774.03;4992700;28;20049;-70
2021/04/25 09:12:50;;;;;;;14.98;7.63;;;;;;;-139.48;100.00;61774.03;4992422;28;20085;-67
2021/04/25 09:15:35;;;;;;;16.02;8.32;;;;;;;-139.48;100.00;61774.03;4992362;28;20105;-69
2021/04/25 09:18:33;;;;;;;12.95;7.45;;;;;;;-139.48;100.00;61774.03;4992848;28;20044;-69
2021/04/25 09:21:17;;;;;;;11.50;7.45;;;;;;;-139.48;100.00;61774.03;4992199;28;20053;-69
2021/04/25 09:24:32;;;;;;;15.50;7.43;;;;;;;-139.48;100.00;61774.03;4978866;28;20555;-68
2021/04/25 09:27:26;;;;;;;12.50;7.75;;;;;;;-139.48;100.00;61774.03;4992389;28;20108;-69
2021/04/25 09:30:11;;;;;;;;;;;;;;;-139.48;100.00;61774.03;4992643;28;20053;-69
2021/04/25 09:33:04;;;;;;;15.02;7.15;;;;;;;-139.48;100.00;61774.03;4978421;28;19928;-67
2021/04/25 09:35:48;;;;;;;15.13;7.25;;;;;;;-139.48;100.00;61774.03;4992415;28;20053;-69
2021/04/25 09:38:35;;;;;;;13.95;7.85;;;;;;;-139.48;100.00;61774.03;4992470;28;20575;-69
2021/04/25 09:41:27;;;;;;;14.27;7.22;;;;;;;-139.48;100.00;61774.03;4992137;28;20120;-69
2021/04/25 09:44:37;;;;;;;14.48;7.10;;;;;;;-139.48;100.00;61774.03;4992309;28;20577;-69
2021/04/25 09:47:35;;;;;;;12.45;6.93;;;;;;;-139.48;100.00;61774.03;4992536;28;20096;-70
2021/04/25 09:50:21;;;;;;;14.60;7.53;;;;;;;-139.48;100.00;61774.03;4992575;28;20084;-70
2021/04/25 09:53:16;;;;;;;11.65;7.28;;;;;;;-139.48;100.00;61774.03;4980828;28;20060;-69
2021/04/25 09:56:00;;;;;;;11.05;6.75;;;;;;;-139.48;100.00;61774.03;4996280;28;20053;-69
2021/04/25 09:58:57;;;;;;;14.18;7.00;;;;;;;-139.48;100.00;61774.03;4996499;28;20049;-70
2021/04/25 10:01:42;;;;;;;11.80;7.00;;;;;;;-139.48;100.00;61774.03;5009717;28;20061;-70
2021/04/25 10:04:37;;;;;;;10.50;6.50;;;;;;;-139.48;100.00;61774.03;4996064;28;20053;-69
2021/04/25 10:07:34;;;;;;;12.52;7.50;;;;;;;-139.48;100.00;61774.03;4996254;28;20466;-70
2021/04/25 10:10:19;;;;;;;10.43;6.75;;;;;;;-139.48;100.00;61774.03;4996310;28;20108;-69
2021/04/25 10:13:03;;;;;;;10.73;7.38;;;;;;;-139.48;100.00;61774.03;4995804;28;20133;-69
2021/04/25 10:15:47;;;;;;;9.80;6.88;;;;;;;-139.48;100.00;61774.03;4982065;28;20387;-69
2021/04/25 10:18:31;;;;;;;;;;;;;;;-139.48;100.00;61774.03;4982776;28;20407;-69
2021/04/25 10:21:15;;;;;;;12.82;7.43;;;;;;;-139.48;100.00;61774.03;4982047;28;20392;-69
2021/04/25 10:23:59;;;;;;;11.35;6.30;;;;;;;-139.48;100.00;61774.03;4982049;28;20109;-69
2021/04/25 10:26:57;;;;;;;14.68;6.45;;;;;;;-139.48;100.00;61774.03;4995662;28;20463;-70
2021/04/25 10:29:52;;;;;;;9.75;5.70;;;;;;;-139.48;100.00;61774.03;5009789;28;20065;-69
2021/04/25 10:32:36;;;;;;;11.65;6.68;;;;;;;-139.48;100.00;61774.03;4995392;28;20073;-70
2021/04/25 10:35:24;;;;;;;11.15;6.82;;;;;;;-139.48;100.00;61774.03;4995380;28;20528;-68
2021/04/25 10:38:08;;;;;;;10.35;6.18;;;;;;;-139.48;100.00;61774.03;5009133;28;20041;-69
2021/04/25 10:41:25;;;;;;;11.48;6.50;;;;;;;-139.48;100.00;61774.03;4995745;28;20487;-70
2021/04/25 10:44:09;;;;;;;10.73;6.55;;;;;;;-139.48;100.00;61774.03;4995693;28;20057;-70
2021/04/25 10:46:53;;;;;;;10.60;6.55;;;;;;;-139.48;100.00;61774.03;4995316;28;20136;-70
2021/04/25 10:49:40;;;;;;;9.65;6.07;;;;;;;-139.48;100.00;61774.03;5009222;28;20081;-69
2021/04/25 10:52:29;;;;;;;8.82;5.78;;;;;;;-139.48;100.00;61774.03;4995319;28;20057;-70
2021/04/25 10:55:20;;;;;;;10.80;6.60;;;;;;;-139.48;100.00;61774.03;4995467;28;20044;-70
2021/04/25 10:58:10;;;;;;;8.98;6.15;;;;;;;-139.48;100.00;61774.03;5008828;28;20388;-69
2021/04/25 11:00:54;;;;;;;11.20;7.20;;;;;;;-139.48;100.00;61774.03;5008844;28;20100;-70
2021/04/25 11:03:40;;;;;;;7.38;5.90;;;;;;;-139.48;100.00;61774.03;4995180;28;20060;-69
2021/04/25 11:06:28;;;;;;;14.77;7.00;;;;;;;-139.48;100.00;61774.03;4995087;28;20109;-69
2021/04/25 11:09:50;;;;;;;10.77;6.63;;;;;;;-139.48;100.00;61774.03;4994992;28;20053;-69
2021/04/25 11:12:40;;;;;;;10.32;6.15;;;;;;;-139.48;100.00;61774.03;4994654;28;20209;-70
2021/04/25 11:15:47;;;;;;;8.88;6.40;;;;;;;-139.48;100.00;61774.03;4994708;28;20049;-70
2021/04/25 11:18:48;;;;;;;10.30;6.50;;;;;;;-139.48;100.00;61774.03;4994754;28;20589;-70
2021/04/25 11:21:42;;;;;;;8.98;6.50;;;;;;;-139.48;100.00;61774.03;4994951;28;20108;-70
2021/04/25 11:24:31;;;;;;;8.15;5.95;;;;;;;-139.48;100.00;61774.03;5008287;28;20513;-70
2021/04/25 11:27:32;;;;;;;15.43;6.55;;;;;;;-139.48;100.00;61774.03;4994491;28;20053;-70
2021/04/25 11:30:40;;;;;;;8.40;6.28;;;;;;;-139.48;100.00;61774.03;4980959;28;20177;-69
2021/04/25 11:33:32;;;;;;;6.15;5.55;;;;;;;-139.48;100.00;61774.03;4994857;28;20104;-70
2021/04/25 11:36:36;;;;;;;8.18;5.70;;;;;;;-139.48;100.00;61774.03;4994708;28;20073;-69
2021/04/25 11:39:22;;;;;;;10.65;6.55;;;;;;;-139.48;100.00;61774.03;4994342;28;20064;-69
2021/04/25 11:42:07;;;;;;;9.50;5.95;;;;;;;-139.48;100.00;61774.03;4994418;28;20097;-69
2021/04/25 11:44:52;;;;;;;6.88;5.00;;;;;;;-139.48;100.00;61774.03;4994263;28;20073;-69
2021/04/25 11:47:44;;;;;;;8.77;5.47;;;;;;;-139.48;100.00;61774.03;4994256;28;20510;-69
2021/04/25 11:50:38;;;;;;;6.57;5.55;;;;;;;-139.48;100.00;61774.03;4994248;28;20092;-69
2021/04/25 11:53:31;;;;;;;7.05;4.95;;;;;;;-139.48;100.00;61774.03;4994155;28;20041;-70
2021/04/25 11:56:24;;;;;;;8.40;5.72;;;;;;;-139.48;100.00;61774.03;4994133;28;20057;-68
2021/04/25 11:59:09;;;;;;;9.10;5.38;;;;;;;-139.48;100.00;61774.03;4994466;28;20061;-70
2021/04/25 12:02:08;;;;;;;7.20;5.28;;;;;;;-139.48;100.00;61774.03;4994079;28;20363;-70
2021/04/25 12:04:55;;;;;;;6.20;5.20;;;;;;;-139.48;100.00;61774.03;4980775;28;20045;-70
2021/04/25 12:07:40;;;;;;;8.90;5.15;;;;;;;-139.48;100.00;61774.03;4993873;28;20514;-70
2021/04/25 12:10:33;;;;;;;8.38;5.40;;;;;;;-139.48;100.00;61774.03;5008068;28;20073;-70
2021/04/25 12:13:22;;;;;;;8.70;5.72;;;;;;;-139.48;100.00;61774.03;5016960;23;20065;-66
2021/04/25 12:16:06;;;;;;;7.28;4.70;;;;;;;-139.48;100.00;61774.03;4992507;28;20133;-66
2021/04/25 12:18:51;;;;;;;6.82;5.07;;;;;;;-139.48;100.00;61774.03;4993517;28;20061;-66
2021/04/25 12:21:35;;;;;;;7.97;5.55;;;;;;;-139.48;100.00;61774.03;4980108;28;20141;-66
2021/04/25 12:24:22;;;;;;;10.27;5.45;;;;;;;-139.48;100.00;61774.03;4960321;28;20134;-65
2021/04/25 12:27:07;;;;;;;8.43;4.93;;;;;;;-139.48;100.00;61774.03;4960767;28;20045;-66
2021/04/25 12:29:51;;;;;;;7.18;5.05;;;;;;;-139.48;100.00;61774.03;4960257;28;20055;-66